createdAt,value
2019-05-09T00:01:43.961Z,12.73
2019-05-09T00:04:14.038Z,12.70
2019-05-09T00:06:43.585Z,12.64
2019-05-09T00:09:13.910Z,12.57
2019-05-09T00:11:44.035Z,12.52
2019-05-09T00:14:13.757Z,12.49
2019-05-09T00:16:43.915Z,12.46
2019-05-09T00:19:13.681Z,12.42
2019-05-09T00:21:47.725Z,12.40
2019-05-09T00:24:17.127Z,12.37
2019-05-09T00:26:46.364Z,12.36
2019-05-09T00:29:33.484Z,12.32
2019-05-09T00:32:23.973Z,12.30
2019-05-09T00:34:54.946Z,12.30
2019-05-09T00:37:25.955Z,12.29
2019-05-09T00:39:55.311Z,12.30
2019-05-09T00:42:24.590Z,12.26
2019-05-09T00:44:55.511Z,12.23
2019-05-09T00:47:26.527Z,12.21
2019-05-09T00:49:55.855Z,12.20
2019-05-09T00:52:25.202Z,12.17
2019-05-09T00:54:54.572Z,12.16
2019-05-09T00:57:38.336Z,12.12
2019-05-09T01:00:14.532Z,12.14
2019-05-09T01:02:43.510Z,12.10
2019-05-09T01:05:13.840Z,12.07
2019-05-09T01:07:43.202Z,12.05
2019-05-09T01:10:14.478Z,12.02
2019-05-09T01:12:43.879Z,12.01
2019-05-09T01:15:13.858Z,11.99
2019-05-09T01:17:44.165Z,11.94
2019-05-09T01:20:14.770Z,11.92
2019-05-09T01:22:44.199Z,11.87
2019-05-09T01:25:13.764Z,11.87
2019-05-09T01:27:43.285Z,11.88
2019-05-09T01:30:13.562Z,11.86
2019-05-09T01:32:47.720Z,11.85
2019-05-09T01:35:17.043Z,11.86
2019-05-09T01:37:46.412Z,11.88
2019-05-09T01:40:16.783Z,11.90
2019-05-09T01:42:46.108Z,11.91
2019-05-09T01:45:15.523Z,11.90
2019-05-09T01:47:44.826Z,11.89
2019-05-09T01:50:14.518Z,11.91
2019-05-09T01:52:43.968Z,11.93
2019-05-09T01:55:14.195Z,11.95
2019-05-09T01:57:47.728Z,11.97
2019-05-09T02:00:15.252Z,12.01
2019-05-09T02:02:44.617Z,12.04
2019-05-09T02:05:14.208Z,12.09
2019-05-09T02:07:43.905Z,12.09
2019-05-09T02:10:14.008Z,12.10
2019-05-09T02:12:43.461Z,12.13
2019-05-09T02:15:14.445Z,12.12
2019-05-09T02:17:58.298Z,12.13
2019-05-09T02:20:16.572Z,12.14
2019-05-09T02:22:45.874Z,12.13
2019-05-09T02:25:15.327Z,12.14
2019-05-09T02:27:44.785Z,12.15
2019-05-09T02:30:15.471Z,12.16
2019-05-09T02:32:45.416Z,12.15
2019-05-09T02:35:15.082Z,12.19
2019-05-09T02:37:44.453Z,12.18
2019-05-09T02:40:14.320Z,12.18
2019-05-09T02:42:43.619Z,12.18
2019-05-09T02:45:13.490Z,12.19
2019-05-09T02:47:42.810Z,12.19
2019-05-09T02:50:12.865Z,12.20
2019-05-09T02:52:42.232Z,12.20
2019-05-09T02:55:11.920Z,12.22
2019-05-09T02:57:41.293Z,12.25
2019-05-09T03:00:21.906Z,12.26
2019-05-09T03:02:59.211Z,12.27
2019-05-09T03:05:29.748Z,12.27
2019-05-09T03:07:58.531Z,12.27
2019-05-09T03:10:29.319Z,12.27
2019-05-09T03:12:59.606Z,12.26
2019-05-09T03:15:29.569Z,12.27
2019-05-09T03:17:59.920Z,12.25
2019-05-09T03:20:49.222Z,12.27
2019-05-09T03:23:19.485Z,12.27
2019-05-09T03:25:49.105Z,12.25
2019-05-09T03:28:23.159Z,12.24
2019-05-09T03:30:59.268Z,12.22
2019-05-09T03:33:30.816Z,12.20
2019-05-09T03:35:59.248Z,12.21
2019-05-09T03:38:28.678Z,12.22
2019-05-09T03:40:58.151Z,12.20
2019-05-09T03:43:27.666Z,12.19
2019-05-09T03:45:58.823Z,12.19
2019-05-09T03:48:32.256Z,12.19
2019-05-09T03:51:01.560Z,12.18
2019-05-09T03:53:30.828Z,12.18
2019-05-09T03:56:01.887Z,12.18
2019-05-09T03:58:31.249Z,12.18
2019-05-09T04:01:00.545Z,12.20
2019-05-09T04:03:29.875Z,12.22
2019-05-09T04:06:02.876Z,12.25
2019-05-09T04:08:30.233Z,12.27
2019-05-09T04:10:59.646Z,12.27
2019-05-09T04:13:33.518Z,12.31
2019-05-09T04:16:02.873Z,12.33
2019-05-09T04:18:32.279Z,12.39
2019-05-09T04:21:01.838Z,12.42
2019-05-09T04:23:31.336Z,12.47
2019-05-09T04:26:02.751Z,12.52
2019-05-09T04:28:32.115Z,12.60
2019-05-09T04:31:01.421Z,12.68
2019-05-09T04:33:30.736Z,12.76
2019-05-09T04:36:00.035Z,12.83
2019-05-09T04:38:29.475Z,12.87
2019-05-09T04:40:58.890Z,12.91
2019-05-09T04:43:35.607Z,12.95
2019-05-09T04:46:01.945Z,13.01
2019-05-09T04:48:37.357Z,13.07
2019-05-09T04:51:07.812Z,13.09
2019-05-09T04:53:39.773Z,13.12
2019-05-09T04:56:27.884Z,13.17
2019-05-09T04:58:58.352Z,13.20
2019-05-09T05:01:47.730Z,13.27
2019-05-09T05:04:20.106Z,13.32
2019-05-09T05:06:49.454Z,13.36
2019-05-09T05:09:20.896Z,13.40
2019-05-09T05:11:49.880Z,13.47
2019-05-09T05:14:22.179Z,13.52
2019-05-09T05:16:58.225Z,13.54
2019-05-09T05:19:30.954Z,13.56
2019-05-09T05:21:59.454Z,13.61
2019-05-09T05:24:30.382Z,13.66
2019-05-09T05:26:59.808Z,13.71
2019-05-09T05:29:29.100Z,13.75
2019-05-09T05:32:00.000Z,13.79
2019-05-09T05:34:37.796Z,13.84
2019-05-09T05:37:07.613Z,13.87
2019-05-09T05:39:37.633Z,13.92
2019-05-09T05:42:08.329Z,13.97
2019-05-09T05:44:38.676Z,13.99
2019-05-09T05:47:09.868Z,14.04
2019-05-09T05:49:39.346Z,14.08
2019-05-09T05:52:08.712Z,14.11
2019-05-09T05:54:38.071Z,14.20
2019-05-09T05:57:08.490Z,14.29
2019-05-09T05:59:40.783Z,14.37
2019-05-09T06:02:09.027Z,14.42
2019-05-09T06:04:38.442Z,14.43
2019-05-09T06:07:08.211Z,14.38
2019-05-09T06:09:38.090Z,14.29
2019-05-09T06:12:08.457Z,14.20
2019-05-09T06:14:38.066Z,14.08
2019-05-09T06:17:08.101Z,14.02
2019-05-09T06:19:38.177Z,14.03
2019-05-09T06:22:08.429Z,13.96
2019-05-09T06:24:38.837Z,13.80
2019-05-09T06:27:10.488Z,13.86
2019-05-09T06:29:40.025Z,13.91
2019-05-09T06:32:09.393Z,13.86
2019-05-09T06:34:41.997Z,13.79
2019-05-09T06:37:09.929Z,13.74
2019-05-09T06:39:39.297Z,13.71
2019-05-09T06:42:09.325Z,13.71
2019-05-09T06:44:47.977Z,13.62
2019-05-09T06:47:19.038Z,13.65
2019-05-09T06:49:50.218Z,13.58
2019-05-09T06:52:28.043Z,13.53
2019-05-09T06:54:58.240Z,13.53
2019-05-09T06:57:28.242Z,13.50
2019-05-09T06:59:58.095Z,13.48
2019-05-09T07:02:32.064Z,13.46
2019-05-09T07:05:03.031Z,13.44
2019-05-09T07:07:37.421Z,13.46
2019-05-09T07:10:08.299Z,13.43
2019-05-09T07:12:38.019Z,13.39
2019-05-09T07:15:08.765Z,13.39
2019-05-09T07:17:38.798Z,13.37
2019-05-09T07:20:08.827Z,13.34
2019-05-09T07:22:39.898Z,13.42
2019-05-09T07:25:11.522Z,13.51
2019-05-09T07:27:42.835Z,13.63
2019-05-09T07:30:24.297Z,13.76
2019-05-09T07:33:13.666Z,13.85
2019-05-09T07:35:42.998Z,13.86
2019-05-09T07:38:12.439Z,13.91
2019-05-09T07:40:41.672Z,13.89
2019-05-09T07:43:10.994Z,14.09
2019-05-09T07:45:42.979Z,14.33
2019-05-09T07:48:12.296Z,14.71
2019-05-09T07:50:41.621Z,15.35
2019-05-09T07:53:11.036Z,15.56
2019-05-09T07:55:40.457Z,15.90
2019-05-09T07:58:09.812Z,16.29
2019-05-09T08:00:39.328Z,16.60
2019-05-09T08:03:12.949Z,16.97
2019-05-09T08:05:39.873Z,17.14
2019-05-09T08:08:12.153Z,17.33
2019-05-09T08:10:41.547Z,17.67
2019-05-09T08:13:12.123Z,18.18
2019-05-09T08:15:41.796Z,18.24
2019-05-09T08:18:11.178Z,18.25
2019-05-09T08:20:44.931Z,18.47
2019-05-09T08:23:14.441Z,18.80
2019-05-09T08:25:43.815Z,19.10
2019-05-09T08:28:13.220Z,19.27
2019-05-09T08:30:43.158Z,19.20
2019-05-09T08:33:12.465Z,18.72
2019-05-09T08:35:41.865Z,18.83
2019-05-09T08:38:11.240Z,18.96
2019-05-09T08:40:40.670Z,18.75
2019-05-09T08:43:10.009Z,18.99
2019-05-09T08:45:39.308Z,19.00
2019-05-09T08:48:09.389Z,19.13
2019-05-09T08:50:40.823Z,19.31
2019-05-09T08:53:11.833Z,19.64
2019-05-09T08:55:41.134Z,19.79
2019-05-09T08:58:10.417Z,19.96
2019-05-09T09:00:39.932Z,19.84
2019-05-09T09:03:09.349Z,19.76
2019-05-09T09:05:43.249Z,19.58
2019-05-09T09:08:12.122Z,19.74
2019-05-09T09:10:41.497Z,19.99
2019-05-09T09:13:10.912Z,20.20
2019-05-09T09:16:05.702Z,20.42
2019-05-09T09:18:11.519Z,20.23
2019-05-09T09:20:40.912Z,20.21
2019-05-09T09:23:10.314Z,20.32
2019-05-09T09:25:39.747Z,20.34
2019-05-09T09:28:09.230Z,20.37
2019-05-09T09:30:39.052Z,20.11
2019-05-09T09:33:11.567Z,20.08
2019-05-09T09:35:39.601Z,19.99
2019-05-09T09:38:09.573Z,19.56
2019-05-09T09:40:38.921Z,19.42
2019-05-09T09:43:09.441Z,19.44
2019-05-09T09:45:39.092Z,19.20
2019-05-09T09:48:09.214Z,19.25
2019-05-09T09:50:38.748Z,19.41
2019-05-09T09:53:09.120Z,19.43
2019-05-09T09:55:38.864Z,19.59
2019-05-09T09:58:08.543Z,19.55
2019-05-09T10:00:44.765Z,19.41
2019-05-09T10:03:14.523Z,19.21
2019-05-09T10:05:43.932Z,19.16
2019-05-09T10:08:14.079Z,19.13
2019-05-09T10:10:43.644Z,19.15
2019-05-09T10:13:13.063Z,19.02
2019-05-09T10:15:44.098Z,18.84
2019-05-09T10:18:20.016Z,18.77
2019-05-09T10:20:51.066Z,18.67
2019-05-09T10:23:21.638Z,18.66
2019-05-09T10:25:52.881Z,18.55
2019-05-09T10:28:22.251Z,18.62
2019-05-09T10:30:51.616Z,18.50
2019-05-09T10:33:21.064Z,18.50
2019-05-09T10:35:50.519Z,18.59
2019-05-09T10:38:19.978Z,18.60
2019-05-09T10:40:53.022Z,18.52
2019-05-09T10:43:38.662Z,18.42
2019-05-09T10:46:19.398Z,18.50
2019-05-09T10:48:50.649Z,18.51
2019-05-09T10:51:20.137Z,18.59
2019-05-09T10:53:49.580Z,18.72
2019-05-09T10:56:19.189Z,18.85
2019-05-09T10:58:48.576Z,18.70
2019-05-09T11:01:18.691Z,18.67
2019-05-09T11:03:48.706Z,18.79
2019-05-09T11:06:18.663Z,18.89
2019-05-09T11:08:49.074Z,18.88
2019-05-09T11:11:18.680Z,18.75
2019-05-09T11:13:48.626Z,18.70
2019-05-09T11:16:18.493Z,18.61
2019-05-09T11:18:48.622Z,18.79
2019-05-09T11:21:19.190Z,18.98
2019-05-09T11:23:49.253Z,19.02
2019-05-09T11:26:18.794Z,19.03
2019-05-09T11:28:48.162Z,19.04
2019-05-09T11:31:18.668Z,18.94
2019-05-09T11:33:48.717Z,18.91
2019-05-09T11:36:21.154Z,18.75
2019-05-09T11:38:49.908Z,18.68
2019-05-09T11:41:19.773Z,18.37
2019-05-09T11:43:49.349Z,17.99
2019-05-09T11:46:18.854Z,17.76
2019-05-09T11:48:48.064Z,17.60
2019-05-09T11:51:22.010Z,17.41
2019-05-09T11:53:48.951Z,17.34
2019-05-09T11:56:18.454Z,17.05
2019-05-09T11:58:48.495Z,17.00
2019-05-09T12:01:19.046Z,17.03
2019-05-09T12:03:52.120Z,17.02
2019-05-09T12:06:20.571Z,16.92
2019-05-09T12:08:50.422Z,16.95
2019-05-09T12:11:19.839Z,16.93
2019-05-09T12:13:49.206Z,16.71
2019-05-09T12:16:18.943Z,16.75
2019-05-09T12:18:49.101Z,16.72
2019-05-09T12:21:19.505Z,16.73
2019-05-09T12:23:49.898Z,16.64
2019-05-09T12:26:19.437Z,16.78
2019-05-09T12:28:48.989Z,16.73
2019-05-09T12:31:18.579Z,16.61
2019-05-09T12:33:48.616Z,16.43
2019-05-09T12:36:19.405Z,16.38
2019-05-09T12:38:50.238Z,16.40
2019-05-09T12:41:20.622Z,16.50
2019-05-09T12:43:49.934Z,16.43
2019-05-09T12:46:19.353Z,16.31
2019-05-09T12:48:48.727Z,16.17
2019-05-09T12:51:18.567Z,16.04
2019-05-09T12:53:48.718Z,15.96
2019-05-09T12:56:18.890Z,16.14
2019-05-09T12:58:48.411Z,16.02
2019-05-09T13:01:18.723Z,16.07
2019-05-09T13:03:48.730Z,16.16
2019-05-09T13:06:20.240Z,16.16
2019-05-09T13:08:49.432Z,16.05
2019-05-09T13:11:20.149Z,15.95
2019-05-09T13:13:49.962Z,15.74
2019-05-09T13:16:21.000Z,15.56
2019-05-09T13:19:03.957Z,15.53
2019-05-09T13:21:33.500Z,15.37
2019-05-09T13:24:03.015Z,15.32
2019-05-09T13:26:32.722Z,15.27
2019-05-09T13:29:02.117Z,15.28
2019-05-09T13:31:34.572Z,15.22
2019-05-09T13:34:02.687Z,15.23
2019-05-09T13:36:32.065Z,15.30
2019-05-09T13:39:05.021Z,15.21
2019-05-09T13:41:32.403Z,15.27
2019-05-09T13:44:05.251Z,15.39
2019-05-09T13:46:32.732Z,15.50
2019-05-09T13:49:11.600Z,15.52
2019-05-09T13:51:33.247Z,15.70
2019-05-09T13:54:02.577Z,15.65
2019-05-09T13:56:32.080Z,15.49
2019-05-09T13:59:01.381Z,15.53
2019-05-09T14:01:30.791Z,15.44
2019-05-09T14:04:00.439Z,15.39
2019-05-09T14:06:29.908Z,15.56
2019-05-09T14:08:59.942Z,15.65
2019-05-09T14:11:29.493Z,15.83
2019-05-09T14:13:58.862Z,15.93
2019-05-09T14:16:28.825Z,15.84
2019-05-09T14:19:00.650Z,15.77
2019-05-09T14:21:29.993Z,15.80
2019-05-09T14:24:10.706Z,15.85
2019-05-09T14:26:30.712Z,15.76
2019-05-09T14:29:00.097Z,15.72
2019-05-09T14:31:32.548Z,15.84
2019-05-09T14:34:01.226Z,15.78
2019-05-09T14:36:30.591Z,15.70
2019-05-09T14:39:00.057Z,15.76
2019-05-09T14:41:29.429Z,15.63
2019-05-09T14:43:59.903Z,15.51
2019-05-09T14:46:29.584Z,15.41
2019-05-09T14:48:59.412Z,15.34
2019-05-09T14:51:29.793Z,15.35
2019-05-09T14:53:59.719Z,15.33
2019-05-09T14:56:29.137Z,15.22
2019-05-09T14:58:58.602Z,15.11
2019-05-09T15:01:28.982Z,15.11
2019-05-09T15:03:58.906Z,15.05
2019-05-09T15:06:28.498Z,14.95
2019-05-09T15:08:58.329Z,14.81
2019-05-09T15:11:28.437Z,14.81
2019-05-09T15:13:58.646Z,14.78
2019-05-09T15:16:28.450Z,14.72
2019-05-09T15:18:58.561Z,14.64
2019-05-09T15:21:28.165Z,14.57
2019-05-09T15:23:59.082Z,14.54
2019-05-09T15:26:29.213Z,14.49
2019-05-09T15:28:58.749Z,14.42
2019-05-09T15:31:28.832Z,14.46
2019-05-09T15:33:58.400Z,14.50
2019-05-09T15:36:27.768Z,14.45
2019-05-09T15:38:59.122Z,14.46
2019-05-09T15:41:28.399Z,14.49
2019-05-09T15:43:58.033Z,14.54
2019-05-09T15:46:29.159Z,14.56
2019-05-09T15:48:58.532Z,14.59
2019-05-09T15:51:28.074Z,14.55
2019-05-09T15:53:57.887Z,14.55
2019-05-09T15:56:28.823Z,14.51
2019-05-09T15:58:58.265Z,14.49
2019-05-09T16:01:27.974Z,14.44
2019-05-09T16:03:57.532Z,14.46
2019-05-09T16:06:32.581Z,14.45
2019-05-09T16:08:58.646Z,14.45
2019-05-09T16:11:28.673Z,14.44
2019-05-09T16:13:58.164Z,14.45
2019-05-09T16:16:28.611Z,14.42
2019-05-09T16:18:58.428Z,14.39
2019-05-09T16:21:28.030Z,14.38
2019-05-09T16:23:59.311Z,14.35
2019-05-09T16:26:29.151Z,14.31
2019-05-09T16:28:58.646Z,14.28
2019-05-09T16:31:28.254Z,14.25
2019-05-09T16:33:58.808Z,14.25
2019-05-09T16:36:28.385Z,14.22
2019-05-09T16:38:58.390Z,14.20
2019-05-09T16:41:28.165Z,14.17
2019-05-09T16:43:58.331Z,14.18
2019-05-09T16:46:28.610Z,14.18
2019-05-09T16:48:58.308Z,14.16
2019-05-09T16:51:28.582Z,14.14
2019-05-09T16:53:58.552Z,14.09
2019-05-09T16:56:28.855Z,14.08
2019-05-09T16:58:58.543Z,14.05
2019-05-09T17:01:28.488Z,14.03
2019-05-09T17:03:58.278Z,13.98
2019-05-09T17:06:27.653Z,13.96
2019-05-09T17:08:58.358Z,13.95
2019-05-09T17:11:28.109Z,13.92
2019-05-09T17:13:58.354Z,13.91
2019-05-09T17:16:28.433Z,13.94
2019-05-09T17:18:58.329Z,13.95
2019-05-09T17:21:29.440Z,13.90
2019-05-09T17:24:00.315Z,13.87
2019-05-09T17:26:29.841Z,13.86
2019-05-09T17:29:00.294Z,13.80
2019-05-09T17:31:29.900Z,13.77
2019-05-09T17:33:59.274Z,13.74
2019-05-09T17:36:28.749Z,13.68
2019-05-09T17:38:58.516Z,13.65
2019-05-09T17:41:31.962Z,13.61
2019-05-09T17:44:01.304Z,13.62
2019-05-09T17:46:30.671Z,13.56
2019-05-09T17:49:00.142Z,13.51
2019-05-09T17:51:33.933Z,13.48
2019-05-09T17:54:03.876Z,13.44
2019-05-09T17:56:34.754Z,13.40
2019-05-09T17:59:08.757Z,13.38
2019-05-09T18:01:38.260Z,13.33
2019-05-09T18:04:09.194Z,13.31
2019-05-09T18:06:38.808Z,13.29
2019-05-09T18:09:08.939Z,13.28
2019-05-09T18:11:38.463Z,13.27
2019-05-09T18:14:08.348Z,13.27
2019-05-09T18:16:39.036Z,13.26
2019-05-09T18:19:09.655Z,13.21
2019-05-09T18:21:50.231Z,13.22
2019-05-09T18:24:10.206Z,13.21
2019-05-09T18:26:39.755Z,13.22
2019-05-09T18:29:09.160Z,13.20
2019-05-09T18:31:52.548Z,13.19
2019-05-09T18:34:22.116Z,13.20
2019-05-09T18:36:51.563Z,13.18
2019-05-09T18:39:23.075Z,13.13
2019-05-09T18:41:52.783Z,13.13
2019-05-09T18:44:22.159Z,13.12
2019-05-09T18:46:51.669Z,13.10
2019-05-09T18:49:21.156Z,13.09
2019-05-09T18:52:02.659Z,13.08
2019-05-09T18:54:22.004Z,13.04
2019-05-09T18:56:57.318Z,13.03
2019-05-09T18:59:32.226Z,12.99
2019-05-09T19:02:05.998Z,12.98
2019-05-09T19:04:35.797Z,12.98
2019-05-09T19:07:21.370Z,12.90
2019-05-09T19:09:37.452Z,12.87
2019-05-09T19:12:07.312Z,12.84
2019-05-09T19:14:37.160Z,12.82
2019-05-09T19:17:10.029Z,12.81
2019-05-09T19:19:41.458Z,12.78
2019-05-09T19:22:22.101Z,12.74
2019-05-09T19:24:42.654Z,12.72
2019-05-09T19:27:12.149Z,12.66
2019-05-09T19:29:41.669Z,12.63
2019-05-09T19:32:11.104Z,12.63
2019-05-09T19:34:40.668Z,12.59
2019-05-09T19:37:10.971Z,12.54
2019-05-09T19:39:40.593Z,12.51
2019-05-09T19:42:10.309Z,12.48
2019-05-09T19:44:39.911Z,12.48
2019-05-09T19:47:09.724Z,12.46
2019-05-09T19:49:39.115Z,12.45
2019-05-09T19:52:08.625Z,12.42
2019-05-09T19:54:38.183Z,12.41
2019-05-09T19:57:08.436Z,12.41
2019-05-09T19:59:37.920Z,12.40
2019-05-09T20:02:07.706Z,12.38
2019-05-09T20:04:37.336Z,12.36
2019-05-09T20:07:07.203Z,12.36
2019-05-09T20:09:55.956Z,12.35
2019-05-09T20:12:33.561Z,12.35
2019-05-09T20:15:03.732Z,12.35
2019-05-09T20:17:33.542Z,12.36
2019-05-09T20:20:06.420Z,12.35
2019-05-09T20:22:36.072Z,12.35
2019-05-09T20:25:07.314Z,12.35
2019-05-09T20:27:36.822Z,12.35
2019-05-09T20:30:08.165Z,12.35
2019-05-09T20:32:38.078Z,12.36
2019-05-09T20:35:08.268Z,12.35
2019-05-09T20:37:38.639Z,12.33
2019-05-09T20:40:08.872Z,12.33
2019-05-09T20:42:39.058Z,12.34
2019-05-09T20:45:09.057Z,12.36
2019-05-09T20:47:38.911Z,12.35
2019-05-09T20:50:09.066Z,12.33
2019-05-09T20:52:38.718Z,12.35
2019-05-09T20:55:10.273Z,12.35
2019-05-09T20:57:40.221Z,12.36
2019-05-09T21:00:10.727Z,12.37
2019-05-09T21:02:40.684Z,12.39
2019-05-09T21:05:11.002Z,12.40
2019-05-09T21:07:40.784Z,12.40
2019-05-09T21:10:10.681Z,12.39
2019-05-09T21:12:40.474Z,12.41
2019-05-09T21:15:10.640Z,12.43
2019-05-09T21:17:40.282Z,12.43
2019-05-09T21:20:10.227Z,12.45
2019-05-09T21:22:40.413Z,12.44
2019-05-09T21:25:10.258Z,12.43
2019-05-09T21:27:39.867Z,12.44
2019-05-09T21:30:10.027Z,12.46
2019-05-09T21:32:39.498Z,12.46
2019-05-09T21:35:09.121Z,12.44
2019-05-09T21:37:38.544Z,12.45
2019-05-09T21:40:09.025Z,12.43
2019-05-09T21:42:38.491Z,12.45
2019-05-09T21:45:08.550Z,12.45
2019-05-09T21:47:37.993Z,12.46
2019-05-09T21:50:08.644Z,12.42
2019-05-09T21:52:38.021Z,12.42
2019-05-09T21:55:08.037Z,12.42
2019-05-09T21:57:37.415Z,12.41
2019-05-09T22:00:15.414Z,12.41
2019-05-09T22:02:45.027Z,12.42
2019-05-09T22:05:14.444Z,12.40
2019-05-09T22:07:43.864Z,12.42
2019-05-09T22:10:14.140Z,12.44
2019-05-09T22:12:43.681Z,12.44
2019-05-09T22:15:15.835Z,12.44
2019-05-09T22:17:45.342Z,12.44
2019-05-09T22:20:16.309Z,12.42
2019-05-09T22:22:46.104Z,12.42
2019-05-09T22:25:16.081Z,12.39
2019-05-09T22:27:45.934Z,12.37
2019-05-09T22:30:16.312Z,12.36
2019-05-09T22:32:45.679Z,12.38
2019-05-09T22:35:15.648Z,12.35
2019-05-09T22:37:45.152Z,12.33
2019-05-09T22:40:15.055Z,12.36
2019-05-09T22:42:46.229Z,12.37
2019-05-09T22:45:15.956Z,12.36
2019-05-09T22:47:45.321Z,12.38
2019-05-09T22:50:14.777Z,12.38
2019-05-09T22:52:44.375Z,12.34
2019-05-09T22:55:14.690Z,12.31
2019-05-09T22:57:44.150Z,12.31
2019-05-09T23:00:15.673Z,12.32
2019-05-09T23:02:45.070Z,12.31
2019-05-09T23:05:14.465Z,12.26
2019-05-09T23:07:43.877Z,12.26
2019-05-09T23:10:13.254Z,12.26
2019-05-09T23:12:42.719Z,12.22
2019-05-09T23:15:14.254Z,12.25
2019-05-09T23:17:45.436Z,12.23
2019-05-09T23:20:22.792Z,12.25
2019-05-09T23:22:52.165Z,12.23
2019-05-09T23:25:21.780Z,12.22
2019-05-09T23:27:51.214Z,12.20
2019-05-09T23:30:20.629Z,12.16
2019-05-09T23:32:50.006Z,12.16
2019-05-09T23:35:19.452Z,12.14
2019-05-09T23:37:48.811Z,12.16
2019-05-09T23:40:18.356Z,12.17
2019-05-09T23:42:47.803Z,12.18
2019-05-09T23:45:17.284Z,12.17
2019-05-09T23:47:46.603Z,12.06
2019-05-09T23:50:16.026Z,12.02
2019-05-09T23:52:45.408Z,11.98
2019-05-09T23:55:32.746Z,11.95
2019-05-09T23:58:20.298Z,11.91
